createdAt,value
2022-09-23T00:57:56.771Z,101710.0
2022-09-23T01:17:56.776Z,101690.0
2022-09-23T01:57:56.883Z,101670.0
2022-09-23T02:37:56.894Z,101650.0
2022-09-23T02:58:42.157Z,101640.0
2022-09-23T03:17:56.816Z,101620.0
2022-09-23T03:37:56.909Z,101610.0
2022-09-23T03:57:56.920Z,101600.0
2022-09-23T04:38:42.191Z,101590.0
2022-09-23T05:17:56.940Z,101590.0
2022-09-23T05:38:42.249Z,101590.0
2022-09-23T05:57:56.951Z,101590.0
2022-09-23T06:18:42.216Z,101590.0
2022-09-23T06:37:56.983Z,101580.0
2022-09-23T06:57:56.868Z,101590.0
2022-09-23T07:17:56.884Z,101590.0
2022-09-23T07:39:27.397Z,101590.0
2022-09-23T07:58:42.157Z,101580.0
2022-09-23T08:17:56.906Z,101590.0
2022-09-23T08:37:56.921Z,101590.0
2022-09-23T08:58:23.334Z,101580.0
2022-09-23T09:17:56.960Z,101570.0
2022-09-23T09:37:56.949Z,101550.0
2022-09-23T09:57:56.902Z,101540.0
2022-09-23T10:17:56.909Z,101530.0
2022-09-23T10:37:56.919Z,101530.0
2022-09-23T10:57:56.955Z,101520.0
2022-09-23T11:17:56.959Z,101520.0
2022-09-23T11:37:56.992Z,101490.0
2022-09-23T11:57:56.995Z,101470.0
2022-09-23T12:17:57.010Z,101460.0
2022-09-23T12:37:57.016Z,101450.0
2022-09-23T12:57:57.029Z,101430.0
2022-09-23T13:17:57.035Z,101410.0
2022-09-23T13:37:57.044Z,101410.0
2022-09-23T13:57:57.071Z,101400.0
2022-09-23T14:17:57.070Z,101390.0
2022-09-23T14:37:57.107Z,101370.0
2022-09-23T14:57:57.080Z,101360.0
2022-09-23T15:17:57.085Z,101350.0
2022-09-23T15:37:57.095Z,101350.0
2022-09-23T15:57:57.106Z,101340.0
2022-09-23T16:17:57.114Z,101340.0
2022-09-23T16:37:57.133Z,101330.0
2022-09-23T16:57:57.131Z,101330.0
2022-09-23T17:17:57.136Z,101330.0
2022-09-23T17:37:57.144Z,101340.0
2022-09-23T17:57:57.149Z,101330.0
2022-09-23T18:17:57.157Z,101320.0
2022-09-23T18:37:57.182Z,101320.0
2022-09-23T18:57:57.180Z,101340.0
2022-09-23T19:17:57.202Z,101340.0
2022-09-23T19:57:57.183Z,101320.0
2022-09-23T21:37:57.232Z,101290.0
2022-09-23T21:57:57.219Z,101290.0
2022-09-23T22:37:57.241Z,101280.0
2022-09-23T22:57:57.244Z,101270.0
2022-09-23T23:17:57.245Z,101260.0
2022-09-23T23:37:57.257Z,101260.0
2022-09-23T23:57:57.264Z,101250.0
